Latest Weather Observations for Wilsons Promontory

IDV60801

Issued at 1:32 pm EST Sunday 31 July 2016 (issued every 30 minutes, with the page automatically refreshed every 10 minutes)

About weather observations | Map of weather stations | Latest weather observations for VIC | Other Formats
Station Details ID: 085096 Name: WILSONS PROMONTORY LIGHTHOUSE Lat: -39.13 Lon: 146.42 Height: 95.0 m
Data from the previous 72 hours. | See also: Recent months at Wilsons Promontory
Date/Time
EST
Temp
°C
App
Temp
°C
Dew
Point
°C
Rel
Hum
%
Delta-T
°C
Wind Press
QNH
hPa
Press
MSL
hPa
Rain since
9am
mm
Dir  Spd
km/h
Gust
km/h
Spd
kts
Gust
kts
31/01:30pm 12.7 5.8 6.5 66 3.0 W 32 46 17 25 1013.1 - 0.0
31/01:00pm 13.0 5.4 5.9 62 3.4 W 35 46 19 25 1013.2 - 0.0
31/12:30pm 12.8 4.8 5.7 62 3.3 W 37 48 20 26 1013.0 - 0.0
31/12:00pm 12.9 4.1 5.6 61 3.4 W 41 54 22 29 1013.1 1013.2 0.0
31/11:30am 12.9 4.9 5.8 62 3.4 W 37 48 20 26 1013.6 - 0.0
31/11:00am 12.7 4.9 6.5 66 3.0 W 37 52 20 28 1013.7 - 0.0
31/10:30am 12.4 3.2 6.2 66 2.9 W 44 57 24 31 1013.4 - 0.0
31/10:00am 12.3 3.6 7.6 73 2.3 W 43 54 23 29 1013.2 - 0.0
31/09:48am 12.2 5.0 7.7 74 2.2 W 35 54 19 29 1013.1 - 0.0
31/09:30am 12.1 4.2 8.0 76 2.0 W 39 56 21 30 1013.2 - 0.0
31/09:00am 11.4 2.1 7.7 78 1.8 W 46 65 25 35 1012.4 1012.5 4.2
31/08:36am 11.6 2.1 6.7 72 2.3 W 46 70 25 38 1012.3 - 4.2
31/08:30am 11.7 2.5 6.2 69 2.6 W 44 61 24 33 1012.1 - 4.2
31/08:00am 11.8 3.5 7.9 77 1.9 W 41 65 22 35 1011.4 - 4.2
31/07:30am 11.1 2.5 8.1 82 1.5 W 43 65 23 35 1011.3 - 4.2
31/07:00am 11.3 2.0 9.2 87 1.1 W 48 67 26 36 1010.9 - 4.0
31/06:30am 11.1 2.1 8.8 86 1.1 W 46 69 25 37 1010.9 - 1.4
31/06:00am 11.6 3.0 8.8 83 1.4 WNW 44 76 24 41 1009.8 1009.9 0.2
31/05:30am 11.7 1.1 8.6 81 1.5 WNW 54 82 29 44 1009.6 - 0.2
31/05:00am 11.6 0.6 8.3 80 1.6 WNW 56 82 30 44 1009.2 - 0.2
31/04:30am 11.6 0.6 8.5 81 1.5 WNW 56 95 30 51 1009.0 - 0.2
31/04:00am 11.3 -1.1 8.3 82 1.5 WNW 63 93 34 50 1008.5 - 0.2
31/03:56am 11.3 -2.4 8.3 82 1.5 W 70 93 38 50 1008.3 - 0.2
31/03:30am 11.8 2.2 7.9 77 1.9 WNW 48 85 26 46 1008.7 - 0.2
31/03:21am 12.2 4.6 7.7 74 2.2 WNW 37 78 20 42 1008.6 - 0.2
31/03:00am 12.0 6.1 7.5 74 2.2 NNW 28 83 15 45 1008.9 1009.0 0.2
31/02:53am 11.9 5.2 7.4 74 2.2 W 32 83 17 45 1008.6 - 0.2
31/02:30am 12.9 6.4 6.7 66 3.0 NW 30 63 16 34 1009.1 - 0.0
31/02:29am 12.9 6.8 6.7 66 3.0 NW 28 63 15 34 1008.8 - 0.0
31/02:22am 12.9 8.9 6.5 65 3.1 NNW 17 70 9 38 1008.9 - 0.0
31/02:19am 13.0 5.2 6.6 65 3.1 W 37 70 20 38 1008.5 - 0.0
31/02:18am 12.9 6.8 6.5 65 3.1 NW 28 63 15 34 1008.8 - 0.0
31/02:00am 12.9 8.8 6.3 64 3.2 NNW 17 54 9 29 1008.7 - 0.0
31/01:31am 13.1 6.9 6.0 62 3.4 NNW 28 65 15 35 1008.7 - 0.0
31/01:30am 13.1 8.4 6.0 62 3.4 N 20 65 11 35 1008.9 - 0.0
31/01:27am 13.2 6.9 5.9 61 3.5 WNW 28 65 15 35 1008.9 - 0.0
31/01:00am 13.2 9.0 5.9 61 3.5 N 17 63 9 34 1009.1 - 0.0
31/12:30am 13.3 6.2 5.5 59 3.7 WNW 32 76 17 41 1009.3 - 0.0
31/12:27am 13.3 4.9 5.5 59 3.7 WNW 39 76 21 41 1009.3 - 0.0
31/12:00am 13.5 6.1 5.2 57 3.9 NNW 33 70 18 38 1009.9 1010.0 0.0
 
Date/Time
EST
Temp
°C
App
Temp
°C
Dew
Point
°C
Rel
Hum
%
Delta-T
°C
Wind Press
QNH
hPa
Press
MSL
hPa
Rain since
9am
mm
Dir  Spd
km/h
Gust
km/h
Spd
kts
Gust
kts
30/11:49pm 13.6 6.2 5.0 56 4.0 NNW 33 78 18 42 1009.6 - 0.0
30/11:30pm 13.6 7.2 5.0 56 4.0 NNW 28 57 15 31 1010.1 - 0.0
30/11:00pm 13.5 5.0 5.2 57 3.9 NNW 39 78 21 42 1010.2 - 0.0
30/10:30pm 13.1 4.3 5.5 60 3.6 NNW 41 82 22 44 1010.8 - 0.0
30/10:00pm 12.8 5.6 5.7 62 3.3 NNW 33 72 18 39 1011.3 - 0.0
30/09:30pm 13.5 4.6 5.2 57 3.9 NNW 41 74 22 40 1010.9 - 0.0
30/09:00pm 13.7 4.7 4.8 55 4.1 NNW 41 69 22 37 1010.9 1011.0 0.0
30/08:30pm 13.2 6.9 5.9 61 3.5 N 28 59 15 32 1011.8 - 0.0
30/08:29pm 13.2 6.9 5.6 60 3.6 N 28 50 15 27 1011.9 - 0.0
30/08:00pm 13.1 10.1 6.0 62 3.4 NNW 11 24 6 13 1012.7 - 0.0
30/07:30pm 13.1 9.7 6.0 62 3.4 N 13 32 7 17 1013.0 - 0.0
30/07:00pm 12.8 8.4 7.3 69 2.7 N 20 35 11 19 1013.1 - 0.0
30/06:30pm 11.3 8.4 8.3 82 1.5 NNE 13 17 7 9 1013.5 - 0.0
30/06:00pm 11.4 8.5 8.3 81 1.5 NNE 13 17 7 9 1013.8 1013.9 0.0
30/05:30pm 11.5 8.3 8.4 81 1.5 NNE 15 17 8 9 1013.8 - 0.0
30/05:00pm 11.6 8.5 8.8 83 1.4 NNE 15 17 8 9 1013.9 - 0.0
30/04:30pm 11.9 8.9 9.3 84 1.3 NNE 15 20 8 11 1014.1 - 0.0
30/04:00pm 12.1 8.7 9.1 82 1.5 NNE 17 22 9 12 1014.4 - 0.0
30/03:30pm 13.0 9.9 8.7 75 2.2 NE 15 24 8 13 1014.5 - 0.0
30/03:00pm 14.0 11.5 8.0 67 3.0 N 11 24 6 13 1014.7 1014.8 0.0
30/02:30pm 13.6 11.8 8.0 69 2.8 ENE 7 22 4 12 1014.9 - 0.0
30/02:00pm 13.5 12.2 7.7 68 2.9 ENE 4 20 2 11 1015.7 - 0.0
30/01:30pm 13.5 12.0 6.6 63 3.3 W 4 15 2 8 1016.4 - 0.0
30/01:00pm 13.8 11.8 6.2 60 3.6 WSW 6 15 3 8 1017.0 - 0.0
30/12:30pm 14.2 12.8 7.3 63 3.4 N 4 11 2 6 1017.3 - 0.0
30/12:00pm 13.3 10.0 8.0 70 2.6 NNW 15 24 8 13 1017.7 1017.8 0.0
30/11:30am 12.5 10.8 8.2 75 2.1 N 7 17 4 9 1018.5 - 0.0
30/11:00am 12.6 11.0 8.1 74 2.2 SW 6 20 3 11 1019.2 - 0.0
30/10:30am 12.0 9.0 7.9 76 2.0 NW 13 30 7 16 1019.6 - 0.0
30/10:00am 12.0 9.9 8.3 78 1.8 NNW 9 20 5 11 1019.7 - 0.0
30/09:30am 11.6 10.8 8.3 80 1.6 ENE 2 13 1 7 1019.9 - 0.0
30/09:00am 11.3 7.9 7.8 79 1.7 NNW 15 24 8 13 1019.8 1019.9 7.0
30/08:30am 10.4 7.7 7.5 82 1.4 NNW 11 17 6 9 1019.8 - 7.0
30/08:00am 10.5 7.0 7.0 79 1.7 N 15 24 8 13 1020.1 - 7.0
30/07:30am 10.5 7.0 7.0 79 1.7 NW 15 20 8 11 1020.1 - 7.0
30/07:00am 10.3 7.1 6.8 79 1.7 NW 13 17 7 9 1020.1 - 7.0
30/06:30am 10.2 6.2 6.7 79 1.7 WNW 17 20 9 11 1020.1 - 7.0
30/06:00am 10.4 7.1 6.5 77 1.8 W 13 17 7 9 1019.9 1020.0 7.0
30/05:30am 10.4 7.1 6.5 77 1.8 W 13 20 7 11 1019.8 - 7.0
30/05:00am 10.2 6.1 6.4 77 1.8 W 17 24 9 13 1019.5 - 7.0
30/04:30am 10.9 5.9 6.6 75 2.0 WSW 22 33 12 18 1019.2 - 7.0
30/04:00am 11.0 6.6 6.6 74 2.1 W 19 33 10 18 1019.4 - 7.0
30/03:30am 11.1 7.0 6.3 72 2.3 W 17 26 9 14 1019.3 - 7.0
30/03:00am 11.1 5.8 6.8 75 2.0 W 24 37 13 20 1019.2 1019.3 7.0
30/02:30am 10.6 5.5 7.5 81 1.5 W 24 32 13 17 1019.5 - 7.0
30/02:00am 10.3 5.0 7.0 80 1.6 W 24 35 13 19 1019.6 - 7.0
30/01:46am 10.4 4.9 7.5 82 1.4 W 26 35 14 19 1019.5 - 7.0
30/01:30am 10.7 1.9 7.9 83 1.4 WSW 44 54 24 29 1019.3 - 7.0
30/01:00am 11.2 0.5 7.9 80 1.6 WSW 54 61 29 33 1018.6 - 7.0
30/12:49am 11.4 3.6 8.4 82 1.5 W 39 59 21 32 1018.6 - 7.0
30/12:30am 11.2 3.1 8.8 85 1.2 WSW 41 52 22 28 1018.7 - 7.0
30/12:00am 11.2 2.6 8.9 86 1.1 WSW 44 54 24 29 1018.7 1018.8 7.0
 
Date/Time
EST
Temp
°C
App
Temp
°C
Dew
Point
°C
Rel
Hum
%
Delta-T
°C
Wind Press
QNH
hPa
Press
MSL
hPa
Rain since
9am
mm
Dir  Spd
km/h
Gust
km/h
Spd
kts
Gust
kts
29/11:38pm 11.4 -0.2 8.4 82 1.5 WSW 59 63 32 34 1018.6 - 7.0
29/11:32pm 11.5 3.7 8.2 80 1.6 W 39 57 21 31 1018.7 - 7.0
29/11:30pm 11.5 3.7 8.2 80 1.6 W 39 54 21 29 1018.7 - 7.0
29/11:16pm 11.5 2.9 8.2 80 1.6 W 43 63 23 34 1018.5 - 7.0
29/11:00pm 11.5 3.3 8.2 80 1.6 W 41 54 22 29 1018.4 - 7.0
29/10:33pm 11.6 3.9 8.5 81 1.5 W 39 59 21 32 1018.2 - 7.0
29/10:30pm 11.8 4.1 8.6 81 1.6 W 39 50 21 27 1018.2 - 7.0
29/10:19pm 11.7 3.5 8.2 79 1.7 W 41 59 22 32 1018.2 - 7.0
29/10:00pm 11.7 2.6 8.6 81 1.5 W 46 59 25 32 1018.0 - 7.0
29/09:40pm 11.9 2.5 8.6 80 1.6 W 48 67 26 36 1017.7 - 7.0
29/09:30pm 11.8 2.7 8.5 80 1.6 W 46 63 25 34 1017.6 - 7.0
29/09:07pm 12.0 2.6 8.7 80 1.6 W 48 67 26 36 1017.3 - 7.0
29/09:00pm 11.9 2.1 8.6 80 1.6 W 50 67 27 36 1017.1 1017.2 7.0
29/08:30pm 11.9 1.7 8.6 80 1.6 W 52 70 28 38 1017.0 - 7.0
29/08:00pm 12.1 1.6 8.8 80 1.7 W 54 72 29 39 1016.8 - 7.0
29/07:30pm 12.1 2.3 8.6 79 1.7 W 50 76 27 41 1016.6 - 7.0
29/07:00pm 12.4 2.3 8.9 79 1.8 W 52 76 28 41 1015.8 - 7.0
29/06:30pm 12.4 2.2 8.7 78 1.9 W 52 76 28 41 1015.2 - 7.0
29/06:00pm 12.1 1.8 8.2 77 1.9 W 52 80 28 43 1015.0 1015.1 7.0
29/05:30pm 12.1 1.8 8.2 77 1.9 W 52 82 28 44 1014.7 - 7.0
29/05:00pm 12.1 1.5 8.4 78 1.8 W 54 78 29 42 1014.2 - 7.0
29/04:30pm 12.0 1.5 9.0 82 1.5 W 54 80 29 43 1014.4 - 7.0
29/04:00pm 11.8 0.9 8.8 82 1.5 W 56 76 30 41 1014.2 - 7.0
29/03:30pm 12.3 1.3 9.3 82 1.5 W 57 89 31 48 1013.5 - 7.0
29/03:00pm 12.0 1.1 9.4 84 1.3 W 57 89 31 48 1013.4 1013.5 7.0
29/02:30pm 12.1 1.3 10.0 87 1.1 W 57 96 31 52 1013.7 - 6.8
29/02:00pm 12.0 0.5 10.1 88 1.0 W 61 83 33 45 1013.2 - 6.2
29/01:30pm 11.6 1.8 10.0 90 0.8 W 52 80 28 43 1013.8 - 5.8
29/01:25pm 11.5 0.9 9.9 90 0.8 W 56 80 30 43 1013.7 - 5.4
29/01:19pm 11.5 4.9 9.9 90 0.8 W 35 89 19 48 1014.0 - 4.6
29/01:00pm 11.6 0.8 9.9 89 0.9 W 57 87 31 47 1013.9 - 4.2
29/12:57pm 11.7 0.1 9.9 89 0.9 W 61 87 33 47 1013.9 - 4.2
29/12:52pm 11.7 4.3 9.9 89 0.9 W 39 78 21 42 1014.4 - 4.2
29/12:30pm 11.5 -0.8 9.9 90 0.8 W 65 89 35 48 1014.0 - 4.2
29/12:00pm 10.9 1.7 9.5 91 0.7 W 48 78 26 42 1014.4 1014.5 4.2
29/11:30am 10.8 1.2 9.4 91 0.7 W 50 83 27 45 1015.1 - 3.2
29/11:00am 11.0 1.1 9.6 91 0.7 W 52 83 28 45 1015.1 - 2.0
29/10:30am 10.9 1.6 9.3 90 0.8 W 48 72 26 39 1014.9 - 1.6
29/10:00am 11.0 0.6 9.4 90 0.8 W 54 89 29 48 1015.1 - 1.6
29/09:41am 10.7 0.6 9.1 90 0.8 W 52 95 28 51 1014.9 - 1.6
29/09:30am 10.7 1.8 9.1 90 0.8 W 46 74 25 40 1015.6 - 1.0
29/09:00am 10.8 1.0 8.6 86 1.1 WNW 50 83 27 45 1015.4 1015.5 7.2
29/08:30am 11.2 -0.4 8.2 82 1.5 WNW 59 95 32 51 1015.1 - 7.0
29/08:00am 11.0 -0.2 8.2 83 1.4 WNW 57 91 31 49 1014.7 - 6.8
29/07:30am 10.7 0.0 8.1 84 1.3 W 54 87 29 47 1015.0 - 6.8
29/07:00am 10.9 -0.8 8.0 82 1.4 WNW 59 93 32 50 1015.3 - 6.8
29/06:30am 11.2 1.6 7.9 80 1.6 W 48 87 26 47 1015.1 - 6.8
29/06:00am 10.9 0.9 8.0 82 1.4 WNW 50 87 27 47 1014.9 1015.0 6.8
29/05:30am 10.6 -0.4 8.4 86 1.1 WNW 56 80 30 43 1014.9 - 6.8
29/05:13am 10.6 -1.9 7.8 83 1.4 WNW 63 85 34 46 1015.4 - 6.6
29/05:10am 10.8 -3.4 7.9 82 1.4 WNW 72 85 39 46 1014.5 - 6.6
29/05:00am 10.9 1.7 7.8 81 1.5 WNW 46 76 25 41 1015.1 - 6.6
29/04:30am 10.5 1.3 8.1 85 1.2 WNW 46 85 25 46 1015.4 - 6.6
29/04:00am 10.5 -0.6 8.1 85 1.2 WNW 56 83 30 45 1014.7 - 6.6
29/03:30am 10.8 0.1 8.0 83 1.4 WNW 54 102 29 55 1015.3 - 6.6
29/03:00am 10.9 -0.2 8.1 83 1.4 WNW 56 96 30 52 1015.7 1015.8 6.6
29/02:30am 10.9 -0.8 8.0 82 1.4 WNW 59 89 32 48 1015.7 - 6.6
29/02:27am 10.9 0.6 8.0 82 1.4 WNW 52 91 28 49 1016.0 - 6.6
29/02:12am 11.1 -3.4 8.0 81 1.5 WNW 74 95 40 51 1015.3 - 6.6
29/02:00am 11.0 1.0 8.0 82 1.5 WNW 50 85 27 46 1015.5 - 6.6
29/01:30am 11.2 1.3 8.1 81 1.5 W 50 91 27 49 1015.4 - 6.6
29/01:00am 11.4 0.2 7.7 78 1.8 W 56 93 30 50 1015.6 - 6.6
29/12:30am 11.7 0.9 7.6 76 2.0 W 54 85 29 46 1015.8 - 6.6
29/12:00am 11.4 0.3 8.1 80 1.6 W 56 106 30 57 1015.7 1015.8 6.6
 
Date/Time
EST
Temp
°C
App
Temp
°C
Dew
Point
°C
Rel
Hum
%
Delta-T
°C
Wind Press
QNH
hPa
Press
MSL
hPa
Rain since
9am
mm
Dir  Spd
km/h
Gust
km/h
Spd
kts
Gust
kts
28/11:51pm 11.5 0.4 7.8 78 1.8 W 56 106 30 57 1015.6 - 6.6
28/11:30pm 11.1 0.8 8.3 83 1.4 W 52 80 28 43 1016.1 - 6.4
28/11:00pm 11.0 1.5 8.4 84 1.3 W 48 91 26 49 1016.7 - 6.2
28/10:30pm 11.0 0.3 8.0 82 1.5 W 54 83 29 45 1016.6 - 5.6
28/10:00pm 11.6 0.5 8.1 79 1.7 W 56 91 30 49 1016.8 - 5.6
28/09:30pm 11.5 2.1 8.9 84 1.3 WNW 48 74 26 40 1017.6 - 5.6
28/09:00pm 11.2 2.8 9.1 87 1.0 W 43 74 23 40 1018.0 1018.1 5.6
28/08:30pm 11.2 2.7 9.3 88 1.0 W 44 80 24 43 1018.5 - 5.6
28/08:00pm 11.7 4.1 8.9 83 1.4 WNW 39 69 21 37 1018.5 - 4.0
28/07:30pm 11.5 3.2 9.2 86 1.2 W 43 63 23 34 1018.3 - 4.0
28/07:00pm 11.9 2.2 9.1 83 1.4 W 50 76 27 41 1018.1 - 3.0
28/06:30pm 11.9 0.8 8.6 80 1.6 W 57 93 31 50 1017.0 - 3.0
28/06:00pm 11.8 -0.9 8.5 80 1.6 W 65 102 35 55 1017.1 1017.2 3.0
28/05:54pm 11.7 -2.6 8.7 82 1.5 W 74 102 40 55 1016.8 - 3.0
28/05:30pm 11.7 1.3 9.1 84 1.3 W 54 85 29 46 1017.3 - 3.0
28/05:00pm 11.4 -0.4 9.1 86 1.2 W 61 87 33 47 1016.9 - 2.8
28/04:30pm 11.7 1.6 9.1 84 1.3 W 52 87 28 47 1016.9 - 2.4
28/04:00pm 11.8 1.3 9.0 83 1.4 W 54 87 29 47 1016.7 - 2.4
28/03:45pm 11.7 4.1 9.1 84 1.3 W 39 74 21 40 1017.0 - 2.4
28/03:30pm 11.6 0.1 8.8 83 1.4 W 59 85 32 46 1016.7 - 2.4
28/03:00pm 11.4 -1.2 8.8 84 1.3 W 65 100 35 54 1015.8 1015.9 2.4
28/02:30pm 11.5 0.4 8.9 84 1.3 W 57 85 31 46 1015.9 - 2.4
28/02:00pm 11.5 -0.2 9.2 86 1.2 W 61 93 33 50 1016.1 - 2.4

Other Formats:

Comma delimited format used in spreadsheet applications
http://www.bom.gov.au/fwo/IDV60801/IDV60801.94893.axf

JavaScript Object Notation format (JSON) in row-major order
http://www.bom.gov.au/fwo/IDV60801/IDV60801.94893.json